North Pekin, Illinois
Current Conditions -  °F | °C
As of 2:54 AM on Friday 31 Oct 2014 (Local Time) from KPIA Reporting Station
Overcast Overcast  
Wind Chill: 44°   Ceiling: 5500
Heat Index: 47°   Visibility: 10mi
Dew Point: 40°   Wind: 7mph
Humidity: 77%   Direction: 320°NW
Pressure: 30.09"   Gusts: NA
Location:  40.5452°N, 89.6011°W
Report Text: KPIA 310754Z 32006KT 10SM BKN055 OVC070 08/04 A3009 RMK AO2 RAE09 SLP192 P0000 T00830044
Loading
Personal Weather Stations






























Interactive Weather Map
Tropical Storm Tracking
New forecast layout! Learn more

10-Day Weather Forecast

Advertisements
Track Severe Weather on mobile